createdAt,value
2019-04-29T00:00:07.280Z,2.12
2019-04-29T00:01:01.314Z,2.35
2019-04-29T00:01:52.292Z,2.50
2019-04-29T00:02:42.354Z,2.33
2019-04-29T00:03:33.421Z,2.83
2019-04-29T00:04:24.385Z,2.70
2019-04-29T00:05:14.727Z,2.62
2019-04-29T00:06:05.286Z,2.70
2019-04-29T00:06:55.076Z,2.40
2019-04-29T00:07:46.424Z,2.50
2019-04-29T00:08:37.816Z,2.45
2019-04-29T00:09:30.878Z,2.52
2019-04-29T00:10:19.548Z,2.40
2019-04-29T00:11:09.927Z,2.30
2019-04-29T00:12:00.348Z,2.47
2019-04-29T00:12:51.580Z,2.40
2019-04-29T00:13:42.409Z,2.55
2019-04-29T00:14:32.220Z,2.58
2019-04-29T00:15:40.969Z,2.50
2019-04-29T00:16:38.792Z,2.55
2019-04-29T00:17:34.968Z,2.17
2019-04-29T00:18:30.701Z,2.50
2019-04-29T00:19:45.050Z,2.42
2019-04-29T00:20:44.799Z,2.40
2019-04-29T00:21:35.216Z,2.27
2019-04-29T00:22:26.062Z,2.45
2019-04-29T00:23:17.586Z,2.77
2019-04-29T00:24:08.451Z,2.40
2019-04-29T00:24:58.462Z,2.50
2019-04-29T00:25:49.296Z,2.40
2019-04-29T00:26:39.611Z,2.52
2019-04-29T00:27:29.772Z,2.50
2019-04-29T00:28:20.308Z,2.98
2019-04-29T00:29:11.295Z,2.60
2019-04-29T00:30:01.484Z,2.50
2019-04-29T00:30:52.031Z,2.90
2019-04-29T00:31:42.343Z,2.58
2019-04-29T00:32:32.723Z,3.10
2019-04-29T00:33:22.892Z,2.30
2019-04-29T00:34:13.800Z,2.77
2019-04-29T00:35:04.347Z,2.70
2019-04-29T00:35:55.053Z,2.72
2019-04-29T00:36:54.203Z,2.72
2019-04-29T00:38:01.787Z,2.58
2019-04-29T00:39:11.932Z,2.60
2019-04-29T00:40:21.691Z,2.60
2019-04-29T00:41:34.374Z,2.40
2019-04-29T00:42:41.184Z,2.62
2019-04-29T00:43:44.638Z,2.40
2019-04-29T00:44:34.912Z,2.50
2019-04-29T00:45:25.308Z,2.50
2019-04-29T00:46:15.880Z,3.08
2019-04-29T00:47:06.607Z,2.72
2019-04-29T00:47:56.510Z,2.90
2019-04-29T00:48:47.164Z,2.62
2019-04-29T00:49:37.280Z,2.98
2019-04-29T00:50:27.949Z,2.72
2019-04-29T00:51:18.284Z,2.67
2019-04-29T00:52:09.642Z,2.83
2019-04-29T00:52:59.558Z,2.83
2019-04-29T00:53:49.900Z,3.15
2019-04-29T00:54:43.596Z,3.00
2019-04-29T00:55:34.584Z,2.92
2019-04-29T00:56:25.355Z,2.70
2019-04-29T00:57:16.358Z,3.02
2019-04-29T00:58:06.539Z,2.80
2019-04-29T00:58:56.938Z,2.92
2019-04-29T00:59:47.711Z,2.92
2019-04-29T01:00:39.151Z,3.45
2019-04-29T01:01:29.307Z,2.80
2019-04-29T01:02:20.068Z,3.52
2019-04-29T01:03:10.438Z,3.02
2019-04-29T01:04:00.918Z,3.27
2019-04-29T01:04:52.789Z,3.00
2019-04-29T01:05:42.783Z,3.10
2019-04-29T01:06:32.951Z,2.98
2019-04-29T01:07:23.577Z,3.20
2019-04-29T01:08:15.004Z,4.40
2019-04-29T01:09:06.454Z,3.08
2019-04-29T01:09:56.710Z,3.42
2019-04-29T01:10:47.180Z,2.98
2019-04-29T01:11:38.247Z,2.95
2019-04-29T01:12:28.544Z,3.02
2019-04-29T01:13:18.381Z,3.22
2019-04-29T01:14:08.945Z,2.90
2019-04-29T01:14:59.665Z,3.20
2019-04-29T01:15:49.940Z,3.42
2019-04-29T01:16:40.469Z,3.47
2019-04-29T01:17:31.387Z,3.10
2019-04-29T01:18:22.105Z,3.35
2019-04-29T01:19:12.044Z,3.02
2019-04-29T01:20:02.244Z,3.27
2019-04-29T01:20:52.898Z,3.15
2019-04-29T01:21:43.121Z,2.98
2019-04-29T01:22:33.946Z,3.15
2019-04-29T01:23:24.220Z,3.27
2019-04-29T01:24:14.074Z,2.90
2019-04-29T01:25:04.600Z,3.15
2019-04-29T01:25:57.497Z,3.25
2019-04-29T01:27:05.837Z,3.12
2019-04-29T01:28:00.913Z,2.83
2019-04-29T01:28:53.007Z,2.75
2019-04-29T01:29:43.967Z,2.70
2019-04-29T01:31:07.378Z,3.15
2019-04-29T01:31:57.992Z,2.50
2019-04-29T01:32:48.236Z,2.83
2019-04-29T01:33:38.624Z,3.05
2019-04-29T01:34:32.389Z,2.60
2019-04-29T01:35:22.280Z,2.50
2019-04-29T01:36:45.218Z,2.72
2019-04-29T01:37:42.861Z,3.05
2019-04-29T01:38:33.267Z,2.92
2019-04-29T01:39:25.782Z,2.62
2019-04-29T01:40:26.904Z,2.87
2019-04-29T01:41:18.118Z,2.60
2019-04-29T01:42:23.706Z,2.90
2019-04-29T01:43:14.380Z,2.42
2019-04-29T01:44:06.169Z,2.83
2019-04-29T01:44:56.224Z,3.37
2019-04-29T01:45:46.395Z,3.10
2019-04-29T01:46:37.103Z,2.80
2019-04-29T01:47:27.597Z,3.02
2019-04-29T01:48:17.872Z,3.10
2019-04-29T01:49:08.292Z,2.80
2019-04-29T01:49:58.495Z,3.15
2019-04-29T01:50:48.722Z,2.83
2019-04-29T01:51:39.740Z,3.30
2019-04-29T01:52:30.083Z,2.75
2019-04-29T01:53:20.441Z,3.47
2019-04-29T01:54:10.867Z,3.22
2019-04-29T01:55:01.426Z,3.92
2019-04-29T01:55:52.112Z,3.30
2019-04-29T01:56:42.484Z,3.30
2019-04-29T01:57:32.971Z,3.05
2019-04-29T01:58:23.160Z,3.02
2019-04-29T01:59:13.993Z,3.72
2019-04-29T02:00:05.565Z,3.20
2019-04-29T02:00:55.440Z,2.40
2019-04-29T02:01:46.043Z,2.85
2019-04-29T02:02:36.243Z,3.30
2019-04-29T02:03:27.064Z,3.55
2019-04-29T02:04:18.868Z,3.20
2019-04-29T02:05:08.991Z,3.17
2019-04-29T02:05:59.985Z,2.98
2019-04-29T02:06:50.746Z,2.92
2019-04-29T02:07:41.189Z,3.00
2019-04-29T02:08:31.581Z,3.40
2019-04-29T02:09:31.020Z,2.77
2019-04-29T02:10:25.764Z,3.08
2019-04-29T02:11:16.496Z,2.85
2019-04-29T02:12:06.755Z,3.10
2019-04-29T02:12:56.920Z,3.15
2019-04-29T02:13:48.153Z,3.37
2019-04-29T02:14:39.320Z,2.70
2019-04-29T02:15:30.479Z,2.65
2019-04-29T02:16:21.554Z,3.70
2019-04-29T02:17:11.640Z,3.12
2019-04-29T02:18:02.744Z,3.50
2019-04-29T02:18:52.969Z,3.30
2019-04-29T02:19:43.267Z,3.10
2019-04-29T02:20:34.417Z,3.20
2019-04-29T02:21:25.620Z,3.50
2019-04-29T02:22:47.272Z,3.20
2019-04-29T02:23:45.401Z,3.37
2019-04-29T02:24:38.608Z,3.00
2019-04-29T02:25:33.967Z,3.42
2019-04-29T02:26:24.035Z,3.40
2019-04-29T02:27:14.127Z,3.15
2019-04-29T02:28:04.175Z,3.20
2019-04-29T02:28:54.616Z,3.17
2019-04-29T02:29:45.125Z,3.15
2019-04-29T02:30:42.829Z,3.12
2019-04-29T02:31:39.436Z,2.72
2019-04-29T02:32:30.065Z,3.27
2019-04-29T02:33:20.313Z,3.60
2019-04-29T02:34:10.544Z,3.30
2019-04-29T02:35:01.935Z,3.10
2019-04-29T02:35:52.953Z,3.20
2019-04-29T02:36:43.149Z,3.37
2019-04-29T02:37:35.464Z,3.50
2019-04-29T02:38:42.226Z,3.27
2019-04-29T02:39:40.505Z,3.20
2019-04-29T02:40:36.005Z,3.20
2019-04-29T02:41:47.680Z,3.47
2019-04-29T02:42:47.583Z,3.50
2019-04-29T02:43:37.965Z,3.08
2019-04-29T02:44:28.475Z,3.15
2019-04-29T02:45:21.335Z,3.08
2019-04-29T02:46:11.749Z,3.00
2019-04-29T02:47:01.888Z,3.25
2019-04-29T02:47:52.362Z,4.03
2019-04-29T02:48:43.042Z,3.33
2019-04-29T02:49:33.347Z,3.30
2019-04-29T02:50:23.446Z,2.85
2019-04-29T02:51:14.510Z,3.10
2019-04-29T02:52:04.769Z,3.33
2019-04-29T02:52:55.113Z,3.52
2019-04-29T02:53:45.662Z,3.25
2019-04-29T02:54:37.302Z,3.60
2019-04-29T02:55:33.869Z,3.47
2019-04-29T02:56:23.789Z,3.02
2019-04-29T02:57:19.860Z,3.05
2019-04-29T02:58:28.245Z,3.12
2019-04-29T02:59:19.831Z,3.05
2019-04-29T03:00:26.057Z,3.65
2019-04-29T03:01:32.329Z,3.33
2019-04-29T03:02:37.133Z,2.90
2019-04-29T03:03:53.713Z,3.12
2019-04-29T03:05:02.058Z,3.05
2019-04-29T03:05:57.553Z,2.92
2019-04-29T03:06:47.941Z,3.17
2019-04-29T03:07:38.950Z,3.47
2019-04-29T03:08:29.350Z,3.67
2019-04-29T03:09:19.348Z,3.25
2019-04-29T03:10:09.687Z,3.37
2019-04-29T03:11:00.076Z,3.20
2019-04-29T03:11:50.307Z,3.50
2019-04-29T03:12:40.768Z,3.40
2019-04-29T03:13:32.794Z,3.60
2019-04-29T03:14:24.680Z,3.47
2019-04-29T03:15:23.050Z,2.87
2019-04-29T03:16:12.928Z,2.90
2019-04-29T03:17:03.762Z,3.33
2019-04-29T03:17:53.595Z,3.17
2019-04-29T03:18:46.985Z,3.40
2019-04-29T03:19:37.563Z,3.72
2019-04-29T03:20:53.576Z,3.47
2019-04-29T03:21:49.715Z,3.25
2019-04-29T03:22:40.186Z,3.27
2019-04-29T03:23:30.748Z,3.75
2019-04-29T03:24:21.483Z,3.33
2019-04-29T03:25:11.601Z,3.33
2019-04-29T03:26:02.647Z,3.85
2019-04-29T03:26:53.659Z,3.60
2019-04-29T03:27:44.415Z,3.60
2019-04-29T03:28:34.587Z,3.83
2019-04-29T03:29:25.353Z,3.45
2019-04-29T03:30:15.726Z,3.27
2019-04-29T03:31:05.923Z,3.27
2019-04-29T03:31:56.886Z,3.15
2019-04-29T03:32:47.491Z,3.15
2019-04-29T03:33:38.053Z,2.87
2019-04-29T03:34:29.033Z,3.00
2019-04-29T03:35:20.128Z,3.55
2019-04-29T03:36:10.608Z,3.40
2019-04-29T03:37:01.534Z,3.42
2019-04-29T03:37:52.349Z,3.50
2019-04-29T03:38:42.144Z,7.10
2019-04-29T03:39:32.555Z,5.10
2019-04-29T03:40:23.351Z,3.70
2019-04-29T03:41:13.569Z,3.30
2019-04-29T03:42:07.179Z,3.00
2019-04-29T03:42:54.500Z,3.90
2019-04-29T03:43:44.888Z,3.05
2019-04-29T03:44:35.517Z,3.45
2019-04-29T03:45:25.880Z,3.47
2019-04-29T03:46:16.839Z,3.22
2019-04-29T03:47:07.638Z,3.20
2019-04-29T03:47:58.219Z,3.30
2019-04-29T03:48:48.721Z,3.67
2019-04-29T03:49:38.851Z,3.77
2019-04-29T03:50:29.297Z,3.75
2019-04-29T03:51:20.095Z,3.52
2019-04-29T03:52:10.779Z,3.45
2019-04-29T03:53:00.632Z,3.70
2019-04-29T03:53:51.461Z,3.40
2019-04-29T03:54:42.128Z,3.52
2019-04-29T03:55:39.828Z,3.30
2019-04-29T03:56:22.521Z,3.77
2019-04-29T03:57:12.761Z,3.70
2019-04-29T03:58:03.574Z,3.22
2019-04-29T03:58:53.335Z,3.77
2019-04-29T03:59:43.721Z,3.37
2019-04-29T04:00:34.231Z,3.30
2019-04-29T04:01:44.513Z,3.20
2019-04-29T04:02:45.832Z,4.15
2019-04-29T04:03:41.249Z,3.75
2019-04-29T04:04:50.171Z,3.80
2019-04-29T04:06:06.120Z,3.47
2019-04-29T04:07:15.818Z,3.35
2019-04-29T04:08:26.257Z,3.87
2019-04-29T04:09:19.516Z,3.58
2019-04-29T04:10:09.336Z,4.03
2019-04-29T04:10:59.622Z,3.62
2019-04-29T04:11:51.107Z,4.12
2019-04-29T04:12:41.340Z,3.90
2019-04-29T04:13:32.228Z,4.15
2019-04-29T04:14:22.197Z,4.40
2019-04-29T04:15:12.409Z,3.83
2019-04-29T04:16:02.969Z,3.92
2019-04-29T04:17:28.435Z,3.72
2019-04-29T04:18:25.840Z,3.45
2019-04-29T04:19:16.152Z,4.05
2019-04-29T04:20:06.780Z,4.00
2019-04-29T04:20:57.427Z,4.15
2019-04-29T04:21:47.811Z,4.20
2019-04-29T04:22:48.318Z,3.62
2019-04-29T04:23:38.511Z,4.17
2019-04-29T04:24:28.659Z,3.90
2019-04-29T04:25:18.862Z,3.62
2019-04-29T04:26:09.230Z,3.52
2019-04-29T04:26:59.721Z,3.72
2019-04-29T04:27:50.336Z,3.85
2019-04-29T04:28:41.043Z,4.60
2019-04-29T04:29:31.690Z,4.70
2019-04-29T04:30:22.586Z,4.37
2019-04-29T04:31:13.776Z,5.00
2019-04-29T04:32:04.371Z,4.58
2019-04-29T04:32:54.850Z,4.80
2019-04-29T04:33:46.135Z,5.08
2019-04-29T04:34:36.456Z,4.12
2019-04-29T04:35:27.292Z,4.17
2019-04-29T04:36:17.528Z,4.05
2019-04-29T04:37:08.222Z,4.03
2019-04-29T04:37:58.462Z,4.65
2019-04-29T04:38:48.559Z,4.42
2019-04-29T04:39:38.875Z,4.53
2019-04-29T04:40:35.238Z,4.50
2019-04-29T04:41:26.018Z,4.65
2019-04-29T04:42:16.963Z,4.47
2019-04-29T04:43:07.412Z,4.40
2019-04-29T04:43:57.670Z,3.95
2019-04-29T04:44:48.760Z,4.30
2019-04-29T04:45:39.733Z,4.70
2019-04-29T04:46:30.097Z,4.25
2019-04-29T04:47:20.383Z,4.58
2019-04-29T04:48:10.470Z,4.53
2019-04-29T04:49:00.773Z,4.60
2019-04-29T04:49:51.432Z,4.90
2019-04-29T04:50:41.686Z,4.47
2019-04-29T04:51:32.488Z,3.90
2019-04-29T04:52:22.768Z,4.40
2019-04-29T04:53:13.627Z,4.67
2019-04-29T04:54:03.915Z,4.50
2019-04-29T04:54:54.825Z,4.42
2019-04-29T04:55:45.405Z,4.72
2019-04-29T04:56:36.256Z,4.65
2019-04-29T04:57:26.412Z,4.92
2019-04-29T04:58:17.934Z,5.05
2019-04-29T04:59:08.269Z,4.22
2019-04-29T04:59:58.525Z,4.30
2019-04-29T05:00:49.545Z,4.62
2019-04-29T05:01:40.230Z,4.12
2019-04-29T05:02:30.392Z,4.42
2019-04-29T05:03:21.690Z,3.92
2019-04-29T05:04:12.247Z,4.50
2019-04-29T05:05:03.006Z,4.80
2019-04-29T05:05:54.047Z,4.22
2019-04-29T05:06:44.324Z,4.25
2019-04-29T05:07:35.027Z,10.38
2019-04-29T05:08:24.929Z,8.30
2019-04-29T05:09:15.463Z,6.62
2019-04-29T05:10:06.702Z,6.40
2019-04-29T05:10:57.218Z,7.83
2019-04-29T05:11:48.328Z,7.22
2019-04-29T05:12:39.411Z,7.20
2019-04-29T05:13:30.533Z,7.75
2019-04-29T05:14:20.952Z,6.58
2019-04-29T05:15:11.195Z,6.33
2019-04-29T05:16:01.963Z,6.97
2019-04-29T05:16:52.324Z,6.20
2019-04-29T05:17:42.362Z,6.35
2019-04-29T05:18:33.207Z,5.42
2019-04-29T05:19:24.038Z,4.60
2019-04-29T05:20:14.723Z,4.78
2019-04-29T05:21:05.604Z,5.60
2019-04-29T05:21:56.529Z,5.22
2019-04-29T05:22:58.666Z,5.25
2019-04-29T05:23:48.844Z,5.00
2019-04-29T05:24:39.503Z,4.20
2019-04-29T05:25:31.316Z,5.12
2019-04-29T05:26:21.593Z,5.15
2019-04-29T05:27:13.396Z,5.58
2019-04-29T05:28:04.172Z,5.20
2019-04-29T05:28:54.625Z,5.60
2019-04-29T05:29:44.824Z,5.00
2019-04-29T05:30:36.131Z,5.83
2019-04-29T05:31:26.049Z,6.12
2019-04-29T05:32:16.342Z,6.05
2019-04-29T05:33:06.962Z,5.17
2019-04-29T05:33:57.625Z,6.03
2019-04-29T05:34:48.511Z,5.47
2019-04-29T05:35:56.842Z,6.05
2019-04-29T05:36:51.488Z,5.97
2019-04-29T05:37:52.795Z,5.03
2019-04-29T05:38:55.927Z,5.10
2019-04-29T05:39:46.439Z,6.00
2019-04-29T05:40:39.788Z,5.35
2019-04-29T05:41:34.338Z,5.33
2019-04-29T05:42:20.773Z,5.17
2019-04-29T05:43:11.446Z,5.72
2019-04-29T05:44:30.854Z,5.20
2019-04-29T05:45:31.974Z,5.03
2019-04-29T05:46:51.168Z,5.67
2019-04-29T05:47:45.337Z,6.90
2019-04-29T05:48:35.966Z,5.72
2019-04-29T05:49:30.927Z,6.95
2019-04-29T05:50:33.789Z,5.62
2019-04-29T05:51:42.677Z,7.05
2019-04-29T05:52:40.890Z,6.53
2019-04-29T05:53:47.869Z,5.72
2019-04-29T05:54:35.144Z,6.60
2019-04-29T05:55:25.828Z,6.47
2019-04-29T05:56:16.091Z,6.00
2019-04-29T05:57:06.273Z,5.97
2019-04-29T05:58:10.547Z,6.55
2019-04-29T05:59:00.650Z,5.75
2019-04-29T05:59:51.530Z,6.87
2019-04-29T06:00:44.475Z,6.08
2019-04-29T06:01:34.813Z,6.30
2019-04-29T06:02:33.411Z,5.65
2019-04-29T06:03:15.903Z,5.67
2019-04-29T06:04:06.617Z,5.97
2019-04-29T06:04:57.639Z,5.62
2019-04-29T06:05:48.658Z,5.65
2019-04-29T06:06:38.964Z,5.65
2019-04-29T06:07:29.721Z,5.72
2019-04-29T06:08:20.528Z,5.90
2019-04-29T06:09:16.944Z,6.47
2019-04-29T06:10:01.407Z,6.30
2019-04-29T06:10:53.304Z,7.12
2019-04-29T06:11:45.490Z,7.22
2019-04-29T06:12:36.433Z,7.08
2019-04-29T06:13:27.627Z,6.55
2019-04-29T06:14:22.065Z,6.47
2019-04-29T06:15:11.263Z,6.50
2019-04-29T06:16:01.131Z,6.35
2019-04-29T06:16:52.952Z,6.33
2019-04-29T06:17:44.707Z,6.20
2019-04-29T06:18:33.746Z,6.15
2019-04-29T06:19:23.997Z,6.22
2019-04-29T06:20:17.993Z,6.50
2019-04-29T06:21:09.341Z,5.67
2019-04-29T06:21:55.395Z,5.87
2019-04-29T06:22:46.343Z,6.75
2019-04-29T06:23:37.351Z,6.05
2019-04-29T06:24:28.004Z,6.12
2019-04-29T06:25:19.204Z,6.50
2019-04-29T06:26:10.225Z,6.55
2019-04-29T06:27:01.799Z,6.17
2019-04-29T06:27:52.414Z,7.05
2019-04-29T06:28:43.123Z,6.58
2019-04-29T06:29:33.956Z,6.45
2019-04-29T06:30:24.947Z,6.28
2019-04-29T06:31:15.577Z,7.33
2019-04-29T06:32:05.775Z,5.87
2019-04-29T06:32:56.661Z,6.00
2019-04-29T06:33:47.341Z,6.65
2019-04-29T06:34:40.192Z,6.75
2019-04-29T06:35:29.773Z,6.25
2019-04-29T06:36:20.222Z,6.03
2019-04-29T06:37:11.307Z,7.03
2019-04-29T06:38:01.812Z,6.58
2019-04-29T06:38:51.987Z,6.70
2019-04-29T06:39:42.903Z,7.00
2019-04-29T06:40:35.497Z,6.70
2019-04-29T06:41:24.482Z,7.20
2019-04-29T06:42:15.568Z,6.72
2019-04-29T06:43:05.757Z,6.83
2019-04-29T06:43:56.429Z,7.22
2019-04-29T06:44:49.013Z,6.70
2019-04-29T06:45:38.331Z,6.53
2019-04-29T06:46:28.250Z,6.55
2019-04-29T06:47:18.610Z,7.65
2019-04-29T06:48:09.967Z,6.83
2019-04-29T06:49:10.135Z,7.30
2019-04-29T06:49:52.189Z,7.00
2019-04-29T06:50:43.262Z,8.00
2019-04-29T06:51:34.356Z,7.85
2019-04-29T06:52:25.514Z,6.92
2019-04-29T06:53:21.359Z,6.37
2019-04-29T06:54:06.922Z,7.58
2019-04-29T06:54:57.164Z,7.08
2019-04-29T06:55:47.723Z,7.00
2019-04-29T06:56:38.188Z,7.08
2019-04-29T06:57:28.804Z,6.78
2019-04-29T06:58:19.600Z,7.17
2019-04-29T06:59:12.063Z,7.35
2019-04-29T06:59:59.974Z,6.80
2019-04-29T07:00:51.254Z,7.17
2019-04-29T07:01:41.461Z,7.28
2019-04-29T07:02:31.964Z,7.75
2019-04-29T07:03:25.613Z,7.10
2019-04-29T07:04:13.226Z,8.80
2019-04-29T07:05:04.636Z,9.00
2019-04-29T07:05:55.078Z,8.68
2019-04-29T07:06:56.643Z,7.62
2019-04-29T07:07:36.833Z,6.70
2019-04-29T07:08:26.920Z,7.28
2019-04-29T07:09:17.522Z,8.08
2019-04-29T07:10:08.594Z,7.55
2019-04-29T07:11:01.121Z,7.08
2019-04-29T07:11:51.030Z,7.50
2019-04-29T07:12:42.797Z,7.97
2019-04-29T07:13:33.164Z,7.70
2019-04-29T07:14:24.207Z,6.72
2019-04-29T07:15:14.070Z,6.85
2019-04-29T07:16:04.630Z,8.35
2019-04-29T07:16:55.029Z,6.87
2019-04-29T07:17:45.719Z,8.08
2019-04-29T07:18:40.309Z,7.45
2019-04-29T07:19:26.594Z,6.42
2019-04-29T07:20:17.551Z,8.13
2019-04-29T07:21:11.999Z,7.83
2019-04-29T07:21:58.100Z,7.78
2019-04-29T07:22:49.008Z,8.73
2019-04-29T07:23:39.451Z,7.80
2019-04-29T07:24:30.220Z,7.10
2019-04-29T07:25:24.644Z,8.25
2019-04-29T07:26:12.676Z,8.00
2019-04-29T07:27:04.494Z,8.08
2019-04-29T07:27:54.299Z,7.83
2019-04-29T07:28:48.704Z,7.28
2019-04-29T07:29:38.140Z,7.22
2019-04-29T07:30:29.160Z,8.98
2019-04-29T07:31:17.467Z,7.65
2019-04-29T07:32:09.325Z,6.30
2019-04-29T07:32:59.934Z,7.80
2019-04-29T07:33:53.662Z,7.95
2019-04-29T07:34:40.887Z,7.50
2019-04-29T07:35:31.499Z,8.30
2019-04-29T07:36:23.900Z,8.78
2019-04-29T07:37:13.004Z,7.95
2019-04-29T07:38:04.528Z,7.10
2019-04-29T07:38:56.558Z,8.35
2019-04-29T07:39:44.580Z,7.40
2019-04-29T07:40:38.799Z,9.53
2019-04-29T07:41:25.363Z,9.50
2019-04-29T07:42:15.945Z,7.92
2019-04-29T07:43:07.844Z,8.10
2019-04-29T07:43:57.360Z,7.70
2019-04-29T07:45:06.631Z,7.97
2019-04-29T07:46:22.549Z,7.90
2019-04-29T07:47:13.812Z,7.58
2019-04-29T07:48:06.285Z,8.60
2019-04-29T07:49:01.682Z,8.83
2019-04-29T07:49:50.925Z,7.33
2019-04-29T07:50:37.462Z,7.15
2019-04-29T07:51:28.802Z,6.67
2019-04-29T07:52:18.848Z,8.60
2019-04-29T07:53:08.989Z,7.20
2019-04-29T07:54:00.364Z,7.92
2019-04-29T07:54:56.087Z,7.65
2019-04-29T07:55:43.552Z,7.28
2019-04-29T07:56:37.899Z,7.90
2019-04-29T07:57:24.835Z,7.85
2019-04-29T07:58:16.315Z,7.60
2019-04-29T07:59:06.706Z,8.30
2019-04-29T07:59:57.622Z,7.25
2019-04-29T08:00:49.998Z,7.50
2019-04-29T08:01:38.980Z,8.10
2019-04-29T08:02:29.018Z,8.28
2019-04-29T08:03:20.107Z,7.40
2019-04-29T08:04:11.066Z,7.58
2019-04-29T08:05:01.399Z,7.30
2019-04-29T08:05:52.825Z,8.30
2019-04-29T08:06:44.896Z,6.75
2019-04-29T08:07:34.531Z,7.17
2019-04-29T08:08:25.147Z,7.15
2019-04-29T08:09:15.618Z,8.78
2019-04-29T08:10:22.522Z,8.05
2019-04-29T08:10:56.926Z,8.85
2019-04-29T08:11:47.186Z,8.30
2019-04-29T08:12:38.292Z,8.50
2019-04-29T08:13:29.575Z,8.33
2019-04-29T08:14:19.968Z,8.03
2019-04-29T08:15:10.177Z,12.00
2019-04-29T08:16:00.580Z,11.25
2019-04-29T08:16:50.789Z,8.78
2019-04-29T08:17:41.530Z,8.58
2019-04-29T08:18:32.272Z,8.23
2019-04-29T08:19:24.583Z,7.37
2019-04-29T08:20:12.913Z,7.62
2019-04-29T08:21:04.605Z,6.97
2019-04-29T08:21:55.200Z,7.67
2019-04-29T08:22:46.072Z,7.65
2019-04-29T08:23:41.227Z,8.88
2019-04-29T08:24:27.469Z,7.78
2019-04-29T08:25:21.815Z,7.55
2019-04-29T08:26:09.307Z,7.62
2019-04-29T08:26:59.401Z,8.83
2019-04-29T08:27:50.480Z,7.85
2019-04-29T08:28:40.522Z,8.68
2019-04-29T08:29:35.718Z,8.88
2019-04-29T08:30:23.521Z,8.08
2019-04-29T08:31:16.672Z,8.30
2019-04-29T08:32:05.584Z,8.40
2019-04-29T08:32:56.323Z,8.03
2019-04-29T08:33:48.553Z,7.87
2019-04-29T08:34:40.765Z,8.15
2019-04-29T08:35:28.133Z,7.72
2019-04-29T08:36:19.430Z,6.50
2019-04-29T08:37:10.143Z,7.50
2019-04-29T08:38:00.919Z,7.50
2019-04-29T08:38:51.048Z,8.60
2019-04-29T08:39:41.630Z,8.70
2019-04-29T08:40:34.242Z,8.85
2019-04-29T08:41:28.481Z,9.43
2019-04-29T08:42:14.347Z,9.33
2019-04-29T08:43:25.528Z,8.98
2019-04-29T08:44:35.566Z,8.85
2019-04-29T08:45:34.643Z,7.97
2019-04-29T08:46:27.592Z,7.67
2019-04-29T08:47:23.590Z,7.62
2019-04-29T08:48:12.772Z,8.10
2019-04-29T08:49:06.003Z,8.25
2019-04-29T08:49:53.677Z,9.23
2019-04-29T08:50:44.266Z,8.55
2019-04-29T08:51:34.754Z,9.13
2019-04-29T08:52:25.747Z,7.58
2019-04-29T08:53:16.699Z,8.25
2019-04-29T08:54:07.061Z,8.45
2019-04-29T08:54:57.347Z,8.10
2019-04-29T08:55:48.587Z,7.75
2019-04-29T08:56:42.547Z,8.45
2019-04-29T08:57:31.840Z,8.60
2019-04-29T08:58:20.211Z,8.50
2019-04-29T08:59:11.580Z,7.28
2019-04-29T09:00:02.005Z,7.50
2019-04-29T09:00:55.695Z,8.10
2019-04-29T09:01:44.694Z,7.50
2019-04-29T09:02:35.904Z,7.60
2019-04-29T09:03:39.608Z,7.33
2019-04-29T09:04:17.523Z,8.10
2019-04-29T09:05:11.318Z,8.03
2019-04-29T09:06:05.579Z,7.35
2019-04-29T09:06:49.740Z,8.35
2019-04-29T09:07:41.280Z,8.55
2019-04-29T09:08:32.821Z,8.63
2019-04-29T09:09:29.314Z,8.73
2019-04-29T09:10:12.053Z,8.83
2019-04-29T09:11:03.385Z,9.08
2019-04-29T09:11:54.006Z,6.95
2019-04-29T09:12:44.427Z,7.10
2019-04-29T09:13:34.599Z,7.08
2019-04-29T09:14:25.849Z,7.33
2019-04-29T09:15:16.077Z,8.03
2019-04-29T09:16:07.567Z,7.62
2019-04-29T09:16:58.065Z,7.90
2019-04-29T09:17:48.845Z,7.50
2019-04-29T09:18:39.672Z,8.95
2019-04-29T09:19:30.311Z,7.72
2019-04-29T09:20:21.487Z,7.50
2019-04-29T09:21:11.991Z,7.15
2019-04-29T09:22:03.593Z,8.53
2019-04-29T09:22:56.386Z,7.50
2019-04-29T09:23:47.524Z,9.00
2019-04-29T09:24:38.567Z,8.20
2019-04-29T09:25:42.835Z,7.30
2019-04-29T09:26:45.347Z,7.50
2019-04-29T09:27:40.780Z,6.72
2019-04-29T09:28:28.300Z,7.55
2019-04-29T09:29:32.442Z,7.35
2019-04-29T09:30:24.220Z,7.67
2019-04-29T09:31:14.428Z,6.47
2019-04-29T09:32:04.842Z,6.80
2019-04-29T09:32:55.450Z,6.55
2019-04-29T09:33:49.081Z,7.22
2019-04-29T09:34:37.248Z,6.72
2019-04-29T09:35:28.892Z,7.25
2019-04-29T09:36:19.084Z,7.58
2019-04-29T09:37:09.209Z,7.47
2019-04-29T09:37:59.708Z,7.10
2019-04-29T09:38:50.149Z,6.70
2019-04-29T09:39:43.455Z,8.05
2019-04-29T09:40:33.799Z,6.75
2019-04-29T09:41:35.059Z,6.80
2019-04-29T09:42:31.217Z,7.72
2019-04-29T09:43:32.772Z,7.37
2019-04-29T09:44:48.691Z,6.53
2019-04-29T09:45:47.749Z,7.17
2019-04-29T09:46:38.803Z,7.00
2019-04-29T09:47:29.041Z,6.70
2019-04-29T09:48:19.809Z,7.30
2019-04-29T09:49:10.287Z,7.80
2019-04-29T09:50:00.718Z,6.62
2019-04-29T09:50:51.071Z,6.97
2019-04-29T09:51:41.413Z,7.25
2019-04-29T09:52:31.948Z,7.03
2019-04-29T09:53:23.027Z,7.03
2019-04-29T09:54:14.561Z,7.40
2019-04-29T09:55:05.696Z,7.33
2019-04-29T09:55:54.894Z,6.72
2019-04-29T09:56:44.769Z,7.40
2019-04-29T09:57:35.380Z,7.72
2019-04-29T09:58:26.567Z,6.62
2019-04-29T09:59:28.950Z,7.35
2019-04-29T10:00:25.292Z,7.37
2019-04-29T10:01:33.070Z,7.05
2019-04-29T10:02:31.318Z,7.75
2019-04-29T10:03:29.872Z,7.28
2019-04-29T10:04:55.513Z,7.22
2019-04-29T10:05:45.433Z,8.13
2019-04-29T10:06:37.805Z,7.97
2019-04-29T10:07:28.585Z,7.03
2019-04-29T10:08:18.956Z,7.40
2019-04-29T10:09:09.386Z,7.05
2019-04-29T10:10:02.314Z,7.45
2019-04-29T10:10:52.128Z,7.58
2019-04-29T10:11:42.983Z,7.62
2019-04-29T10:12:33.215Z,8.08
2019-04-29T10:13:23.102Z,7.22
2019-04-29T10:14:13.707Z,7.40
2019-04-29T10:15:04.034Z,7.15
2019-04-29T10:16:16.917Z,7.10
2019-04-29T10:17:24.687Z,27.52
2019-04-29T10:18:25.153Z,9.68
2019-04-29T10:19:51.204Z,11.10
2019-04-29T10:20:53.824Z,8.90
2019-04-29T10:21:44.406Z,8.30
2019-04-29T10:22:35.287Z,8.70
2019-04-29T10:23:26.730Z,8.30
2019-04-29T10:24:18.601Z,8.40
2019-04-29T10:25:09.267Z,7.95
2019-04-29T10:25:59.329Z,6.60
2019-04-29T10:26:50.260Z,8.80
2019-04-29T10:27:40.750Z,7.12
2019-04-29T10:28:30.629Z,8.15
2019-04-29T10:29:21.646Z,8.73
2019-04-29T10:30:13.024Z,7.95
2019-04-29T10:31:05.035Z,8.85
2019-04-29T10:31:55.641Z,8.48
2019-04-29T10:32:46.279Z,8.25
2019-04-29T10:33:36.885Z,8.63
2019-04-29T10:34:31.556Z,7.30
2019-04-29T10:35:18.302Z,8.10
2019-04-29T10:36:09.221Z,8.13
2019-04-29T10:37:01.174Z,8.00
2019-04-29T10:37:51.344Z,7.70
2019-04-29T10:38:44.909Z,8.83
2019-04-29T10:39:55.731Z,7.95
2019-04-29T10:41:08.284Z,7.47
2019-04-29T10:41:59.750Z,7.95
2019-04-29T10:43:11.322Z,8.93
2019-04-29T10:44:29.806Z,7.67
2019-04-29T10:45:28.885Z,9.88
2019-04-29T10:46:37.755Z,10.23
2019-04-29T10:47:36.507Z,8.90
2019-04-29T10:48:30.821Z,7.83
2019-04-29T10:49:28.345Z,8.83
2019-04-29T10:50:24.096Z,8.80
2019-04-29T10:51:14.321Z,8.68
2019-04-29T10:52:05.992Z,9.58
2019-04-29T10:52:56.506Z,8.53
2019-04-29T10:53:51.122Z,9.85
2019-04-29T10:54:38.283Z,9.30
2019-04-29T10:55:30.121Z,9.00
2019-04-29T10:56:19.026Z,12.60
2019-04-29T10:57:14.344Z,10.25
2019-04-29T10:58:01.104Z,9.25
2019-04-29T10:58:52.222Z,9.10
2019-04-29T10:59:45.044Z,9.00
2019-04-29T11:01:34.670Z,9.20
2019-04-29T11:02:36.253Z,9.28
2019-04-29T11:03:26.427Z,8.18
2019-04-29T11:04:16.807Z,8.58
2019-04-29T11:05:59.935Z,9.48
2019-04-29T11:06:37.483Z,9.75
2019-04-29T11:07:31.742Z,9.73
2019-04-29T11:08:43.186Z,9.28
2019-04-29T11:09:50.751Z,10.30
2019-04-29T11:10:36.879Z,10.80
2019-04-29T11:11:28.353Z,9.35
2019-04-29T11:12:19.223Z,8.75
2019-04-29T11:13:10.890Z,9.75
2019-04-29T11:14:01.899Z,9.20
2019-04-29T11:14:52.157Z,9.30
2019-04-29T11:15:44.919Z,9.95
2019-04-29T11:16:45.911Z,11.88
2019-04-29T11:17:24.732Z,9.88
2019-04-29T11:18:18.071Z,10.28
2019-04-29T11:19:05.712Z,10.50
2019-04-29T11:19:55.952Z,11.33
2019-04-29T11:20:48.851Z,13.78
2019-04-29T11:21:38.859Z,13.98
2019-04-29T11:22:34.018Z,14.28
2019-04-29T11:23:28.358Z,12.65
2019-04-29T11:24:33.723Z,10.30
2019-04-29T11:25:38.908Z,9.43
2019-04-29T11:26:34.970Z,9.43
2019-04-29T11:27:29.042Z,9.78
2019-04-29T11:28:19.863Z,9.45
2019-04-29T11:29:11.520Z,11.20
2019-04-29T11:30:04.838Z,10.28
2019-04-29T11:30:53.619Z,10.43
2019-04-29T11:31:44.342Z,10.10
2019-04-29T11:32:39.501Z,9.95
2019-04-29T11:33:39.569Z,9.95
2019-04-29T11:34:39.497Z,9.58
2019-04-29T11:35:43.185Z,11.55
2019-04-29T11:36:34.987Z,12.35
2019-04-29T11:37:27.145Z,10.88
2019-04-29T11:38:18.021Z,9.75
2019-04-29T11:39:13.598Z,10.35
2019-04-29T11:39:59.467Z,10.18
2019-04-29T11:40:50.372Z,10.18
2019-04-29T11:41:40.664Z,9.63
2019-04-29T11:42:31.873Z,10.13